KWHP/WHP METAR and TAF weather

Enter ICAO airport designator
Station Type Date Time Source
KWHP METAR 2019/04/24 15:50 UTC NOAA

KWHP 241550Z 00000KT 10SM SKC 18/09 A3004


Station Type Date Time Source
KWHP Decoded METAR 2019/04/24 15:50 UTC NOAA

Los Angeles, Whiteman Airport, CA, United States (KWHP) 34-15N 118-24W
Apr 24, 2019 - 11:50 AM EDT / 2019.04.24 1550 UTC
Wind: Calm:0
Visibility: 10 mile(s):0
Sky conditions: clear
Temperature: 64 F (18 C)
Dew Point: 48 F (9 C)
Relative Humidity: 55%
Pressure (altimeter): 30.04 in. Hg (1017 hPa)
ob: KWHP 241550Z 00000KT 10SM SKC 18/09 A3004
cycle: 16

Station Type Date Time Source
KWHP TAF UTC NOAA

Error!

Example: see airport list